aviador You're here:

EGOV Decoded Metar

VALLEY in UK
Report Time2018-05-20 21:50:00
UTC Time2018-05-20 23:09:11
Flight Rules Old
Wind180° at 08 kt
W.Decomp.*RWY 19: 7.9 kt HW 1 kt LCW
RWY 13: 4.8 kt HW 6.4 kt RCW
W.Rank180° ranks 4
Current wind is below 180° avg. (16.4)
Visibility9999 m
Phenomena:N/A
Clouds:Overcast 140 Hf
Expected CloudBase > 1,600 ft AGL from Temp-Dew spread
Ceiling14,000 ft
Temp12°C (ISA -3)
Dew Point08°C (77% RH)
AAT8.7°C
QNH1019 hPa
Density Alt-371 ft
Elevation36 ft
Report Wrong Elevation
Raw Report
METAR EGOV 202150Z AUTO 18008KT 9999 OVC140/// 12/08 Q1019=

Extra information for EGOV:More info

Metar Taf Metar & Taf Last 4 Metars F.Rules Stats Wind Profile Meteogram Temp Stats Airport Information Weather charts Add Link Nearby VenuesMetar ALERT Operation Metar Decoded Social comments